sensor_id;sensor_type;location;lat;lon;timestamp;pressure;altitude;pressure_sealevel;temperature;humidity
32456;BME280;18912;43.270;27.942;2022-10-16T00:01:46;98855.47;;;12.54;73.98
32456;BME280;18912;43.270;27.942;2022-10-16T00:04:12;98845.09;;;12.64;73.90
32456;BME280;18912;43.270;27.942;2022-10-16T00:06:38;98858.03;;;12.62;74.33
32456;BME280;18912;43.270;27.942;2022-10-16T00:09:03;98850.09;;;12.67;74.07
32456;BME280;18912;43.270;27.942;2022-10-16T00:11:33;98851.75;;;12.62;73.82
32456;BME280;18912;43.270;27.942;2022-10-16T00:14:07;98857.16;;;12.55;73.82
32456;BME280;18912;43.270;27.942;2022-10-16T00:16:33;98854.63;;;12.47;73.62
32456;BME280;18912;43.270;27.942;2022-10-16T00:18:59;98862.53;;;12.42;73.74
32456;BME280;18912;43.270;27.942;2022-10-16T00:21:27;98859.19;;;12.40;73.85
32456;BME280;18912;43.270;27.942;2022-10-16T00:23:55;98866.84;;;12.37;74.16
32456;BME280;18912;43.270;27.942;2022-10-16T00:26:21;98858.91;;;12.29;74.23
32456;BME280;18912;43.270;27.942;2022-10-16T00:28:48;98866.19;;;12.28;74.37
32456;BME280;18912;43.270;27.942;2022-10-16T00:31:14;98864.72;;;12.26;74.28
32456;BME280;18912;43.270;27.942;2022-10-16T00:33:40;98860.94;;;12.20;74.29
32456;BME280;18912;43.270;27.942;2022-10-16T00:36:07;98866.56;;;12.18;74.19
32456;BME280;18912;43.270;27.942;2022-10-16T00:38:35;98853.94;;;12.04;74.31
32456;BME280;18912;43.270;27.942;2022-10-16T00:41:00;98859.53;;;11.96;74.27
32456;BME280;18912;43.270;27.942;2022-10-16T00:43:46;98860.75;;;11.94;73.84
32456;BME280;18912;43.270;27.942;2022-10-16T00:51:23;98860.28;;;11.63;73.52
32456;BME280;18912;43.270;27.942;2022-10-16T00:53:50;98855.19;;;11.53;73.29
32456;BME280;18912;43.270;27.942;2022-10-16T00:56:16;98856.31;;;11.38;73.36
32456;BME280;18912;43.270;27.942;2022-10-16T00:58:41;98856.25;;;11.31;73.17
32456;BME280;18912;43.270;27.942;2022-10-16T01:01:07;98843.44;;;11.18;73.34
32456;BME280;18912;43.270;27.942;2022-10-16T01:03:35;98857.78;;;11.19;73.29
32456;BME280;18912;43.270;27.942;2022-10-16T01:08:58;98863.00;;;10.99;74.35
32456;BME280;18912;43.270;27.942;2022-10-16T01:14:55;98873.69;;;10.86;75.21
32456;BME280;18912;43.270;27.942;2022-10-16T01:17:34;98877.81;;;10.82;75.51
32456;BME280;18912;43.270;27.942;2022-10-16T01:20:15;98884.22;;;10.81;75.36
32456;BME280;18912;43.270;27.942;2022-10-16T01:23:19;98883.97;;;10.76;75.94
32456;BME280;18912;43.270;27.942;2022-10-16T01:28:34;98888.91;;;10.73;76.20
32456;BME280;18912;43.270;27.942;2022-10-16T01:31:02;98882.50;;;10.59;76.17
32456;BME280;18912;43.270;27.942;2022-10-16T01:33:33;98889.13;;;10.57;76.45
32456;BME280;18912;43.270;27.942;2022-10-16T01:36:07;98892.41;;;10.52;76.35
32456;BME280;18912;43.270;27.942;2022-10-16T01:38:38;98895.00;;;10.46;76.49
32456;BME280;18912;43.270;27.942;2022-10-16T01:43:40;98893.34;;;10.30;77.28
32456;BME280;18912;43.270;27.942;2022-10-16T01:46:09;98893.59;;;10.20;77.56
32456;BME280;18912;43.270;27.942;2022-10-16T01:48:36;98893.88;;;10.11;77.85
32456;BME280;18912;43.270;27.942;2022-10-16T01:51:10;98899.97;;;10.05;78.36
32456;BME280;18912;43.270;27.942;2022-10-16T01:53:37;98896.94;;;10.08;78.38
32456;BME280;18912;43.270;27.942;2022-10-16T01:56:08;98893.78;;;10.04;78.45
32456;BME280;18912;43.270;27.942;2022-10-16T01:58:42;98896.28;;;10.06;78.21
32456;BME280;18912;43.270;27.942;2022-10-16T02:01:11;98898.78;;;10.07;77.60
32456;BME280;18912;43.270;27.942;2022-10-16T02:03:40;98888.44;;;9.96;78.04
32456;BME280;18912;43.270;27.942;2022-10-16T02:06:08;98888.16;;;9.91;78.32
32456;BME280;18912;43.270;27.942;2022-10-16T02:08:34;98901.47;;;9.93;78.58
32456;BME280;18912;43.270;27.942;2022-10-16T02:11:00;98898.84;;;9.85;78.75
32456;BME280;18912;43.270;27.942;2022-10-16T02:13:30;98912.34;;;9.85;78.84
32456;BME280;18912;43.270;27.942;2022-10-16T02:15:57;98905.03;;;9.93;78.87
32456;BME280;18912;43.270;27.942;2022-10-16T02:18:23;98912.88;;;10.03;79.31
32456;BME280;18912;43.270;27.942;2022-10-16T02:26:35;98900.06;;;10.19;80.15
32456;BME280;18912;43.270;27.942;2022-10-16T02:29:06;98908.72;;;10.29;80.31
32456;BME280;18912;43.270;27.942;2022-10-16T02:31:35;98910.50;;;10.37;80.34
32456;BME280;18912;43.270;27.942;2022-10-16T02:34:03;98904.31;;;10.43;80.27
32456;BME280;18912;43.270;27.942;2022-10-16T02:36:31;98918.50;;;10.45;80.16
32456;BME280;18912;43.270;27.942;2022-10-16T02:38:58;98921.84;;;10.47;79.00
32456;BME280;18912;43.270;27.942;2022-10-16T02:41:26;98920.91;;;10.40;79.26
32456;BME280;18912;43.270;27.942;2022-10-16T02:43:51;98928.75;;;10.35;79.23
32456;BME280;18912;43.270;27.942;2022-10-16T02:46:17;98924.44;;;10.26;78.90
32456;BME280;18912;43.270;27.942;2022-10-16T02:48:43;98920.28;;;10.23;77.83
32456;BME280;18912;43.270;27.942;2022-10-16T02:51:09;98925.94;;;10.14;77.61
32456;BME280;18912;43.270;27.942;2022-10-16T02:53:34;98929.69;;;10.05;77.34
32456;BME280;18912;43.270;27.942;2022-10-16T02:56:00;98936.53;;;10.01;77.40
32456;BME280;18912;43.270;27.942;2022-10-16T02:58:25;98928.41;;;10.01;77.48
32456;BME280;18912;43.270;27.942;2022-10-16T03:00:50;98931.84;;;9.95;77.47
32456;BME280;18912;43.270;27.942;2022-10-16T03:03:16;98935.94;;;9.91;77.67
32456;BME280;18912;43.270;27.942;2022-10-16T03:05:43;98924.84;;;9.86;77.53
32456;BME280;18912;43.270;27.942;2022-10-16T03:08:11;98935.09;;;9.90;77.48
32456;BME280;18912;43.270;27.942;2022-10-16T03:10:36;98936.13;;;9.89;77.85
32456;BME280;18912;43.270;27.942;2022-10-16T03:13:02;98930.41;;;9.84;78.10
32456;BME280;18912;43.270;27.942;2022-10-16T03:15:27;98936.19;;;9.81;78.63
32456;BME280;18912;43.270;27.942;2022-10-16T03:17:54;98938.03;;;9.81;78.91
32456;BME280;18912;43.270;27.942;2022-10-16T03:20:20;98933.31;;;9.83;79.35
32456;BME280;18912;43.270;27.942;2022-10-16T03:22:45;98941.06;;;9.86;79.61
32456;BME280;18912;43.270;27.942;2022-10-16T03:25:11;98936.00;;;9.83;79.50
32456;BME280;18912;43.270;27.942;2022-10-16T03:27:36;98936.53;;;9.78;79.45
32456;BME280;18912;43.270;27.942;2022-10-16T03:30:03;98932.84;;;9.79;79.48
32456;BME280;18912;43.270;27.942;2022-10-16T03:32:28;98939.75;;;9.82;79.51
32456;BME280;18912;43.270;27.942;2022-10-16T03:34:54;98930.97;;;9.80;79.29
32456;BME280;18912;43.270;27.942;2022-10-16T03:37:21;98933.03;;;9.78;79.43
32456;BME280;18912;43.270;27.942;2022-10-16T03:39:46;98929.84;;;9.74;78.88
32456;BME280;18912;43.270;27.942;2022-10-16T03:42:12;98936.44;;;9.72;78.79
32456;BME280;18912;43.270;27.942;2022-10-16T03:44:37;98936.81;;;9.69;78.66
32456;BME280;18912;43.270;27.942;2022-10-16T03:47:03;98935.50;;;9.65;78.19
32456;BME280;18912;43.270;27.942;2022-10-16T03:49:28;98931.91;;;9.50;78.88
32456;BME280;18912;43.270;27.942;2022-10-16T03:51:54;98937.56;;;9.40;79.26
32456;BME280;18912;43.270;27.942;2022-10-16T03:54:19;98937.19;;;9.43;79.42
32456;BME280;18912;43.270;27.942;2022-10-16T03:56:45;98933.97;;;9.48;78.95
32456;BME280;18912;43.270;27.942;2022-10-16T03:59:10;98940.34;;;9.47;78.78
32456;BME280;18912;43.270;27.942;2022-10-16T04:01:36;98939.81;;;9.51;78.65
32456;BME280;18912;43.270;27.942;2022-10-16T04:04:01;98948.78;;;9.52;78.36
32456;BME280;18912;43.270;27.942;2022-10-16T04:06:27;98938.97;;;9.51;78.71
32456;BME280;18912;43.270;27.942;2022-10-16T04:08:52;98933.97;;;9.48;78.65
32456;BME280;18912;43.270;27.942;2022-10-16T04:11:18;98932.16;;;9.40;79.14
32456;BME280;18912;43.270;27.942;2022-10-16T04:13:43;98935.16;;;9.45;79.18
32456;BME280;18912;43.270;27.942;2022-10-16T04:16:09;98938.75;;;9.37;79.37
32456;BME280;18912;43.270;27.942;2022-10-16T04:18:34;98945.81;;;9.38;79.82
32456;BME280;18912;43.270;27.942;2022-10-16T04:21:07;98948.50;;;9.38;79.95
32456;BME280;18912;43.270;27.942;2022-10-16T04:23:32;98945.69;;;9.32;80.21
32456;BME280;18912;43.270;27.942;2022-10-16T04:25:59;98952.41;;;9.36;80.45
32456;BME280;18912;43.270;27.942;2022-10-16T04:28:25;98953.19;;;9.44;80.46
32456;BME280;18912;43.270;27.942;2022-10-16T04:30:51;98947.72;;;9.53;80.50
32456;BME280;18912;43.270;27.942;2022-10-16T04:33:17;98950.66;;;9.66;80.51
32456;BME280;18912;43.270;27.942;2022-10-16T04:35:42;98949.56;;;9.75;80.38
32456;BME280;18912;43.270;27.942;2022-10-16T04:38:08;98952.13;;;9.76;80.64
32456;BME280;18912;43.270;27.942;2022-10-16T04:40:33;98955.38;;;9.86;80.27
32456;BME280;18912;43.270;27.942;2022-10-16T04:43:02;98950.44;;;9.90;80.28
32456;BME280;18912;43.270;27.942;2022-10-16T04:45:27;98958.47;;;9.98;79.64
32456;BME280;18912;43.270;27.942;2022-10-16T04:47:57;98964.00;;;10.04;79.42
32456;BME280;18912;43.270;27.942;2022-10-16T04:50:22;98963.59;;;10.15;79.14
32456;BME280;18912;43.270;27.942;2022-10-16T04:52:47;98964.31;;;10.24;78.78
32456;BME280;18912;43.270;27.942;2022-10-16T04:55:13;98955.88;;;10.27;78.79
32456;BME280;18912;43.270;27.942;2022-10-16T04:57:38;98955.69;;;10.28;78.70
32456;BME280;18912;43.270;27.942;2022-10-16T05:00:05;98958.94;;;10.39;78.32
32456;BME280;18912;43.270;27.942;2022-10-16T05:02:30;98965.81;;;10.41;78.19
32456;BME280;18912;43.270;27.942;2022-10-16T05:04:56;98963.16;;;10.56;77.65
32456;BME280;18912;43.270;27.942;2022-10-16T05:07:21;98971.34;;;10.62;77.44
32456;BME280;18912;43.270;27.942;2022-10-16T05:09:47;98969.19;;;10.72;77.19
32456;BME280;18912;43.270;27.942;2022-10-16T05:12:12;98975.69;;;10.92;76.92
32456;BME280;18912;43.270;27.942;2022-10-16T05:14:38;98973.44;;;11.10;76.16
32456;BME280;18912;43.270;27.942;2022-10-16T05:17:03;98967.03;;;11.32;75.62
32456;BME280;18912;43.270;27.942;2022-10-16T05:19:29;98978.06;;;11.52;74.88
32456;BME280;18912;43.270;27.942;2022-10-16T05:21:54;98985.59;;;11.71;74.40
32456;BME280;18912;43.270;27.942;2022-10-16T05:24:20;98988.50;;;11.91;73.53
32456;BME280;18912;43.270;27.942;2022-10-16T05:26:45;98988.22;;;12.07;72.52
32456;BME280;18912;43.270;27.942;2022-10-16T05:29:11;98991.84;;;12.42;71.12
32456;BME280;18912;43.270;27.942;2022-10-16T05:31:37;98998.47;;;12.67;70.29
32456;BME280;18912;43.270;27.942;2022-10-16T05:34:02;99002.63;;;12.97;68.53
32456;BME280;18912;43.270;27.942;2022-10-16T05:36:28;99005.28;;;13.25;67.41
32456;BME280;18912;43.270;27.942;2022-10-16T05:38:53;99017.47;;;13.48;65.88
32456;BME280;18912;43.270;27.942;2022-10-16T05:41:19;99010.03;;;13.83;64.35
32456;BME280;18912;43.270;27.942;2022-10-16T05:43:47;99015.13;;;14.19;63.52
32456;BME280;18912;43.270;27.942;2022-10-16T05:46:13;99022.03;;;14.54;61.70
32456;BME280;18912;43.270;27.942;2022-10-16T05:48:39;99013.38;;;14.89;60.12
32456;BME280;18912;43.270;27.942;2022-10-16T05:51:06;99013.59;;;14.94;59.17
32456;BME280;18912;43.270;27.942;2022-10-16T05:53:35;99020.34;;;15.49;57.63
32456;BME280;18912;43.270;27.942;2022-10-16T05:56:02;99019.91;;;15.90;55.96
32456;BME280;18912;43.270;27.942;2022-10-16T05:58:36;99022.13;;;16.31;53.88
32456;BME280;18912;43.270;27.942;2022-10-16T06:01:11;99025.84;;;16.67;52.99
32456;BME280;18912;43.270;27.942;2022-10-16T06:03:37;99022.09;;;17.05;51.51
32456;BME280;18912;43.270;27.942;2022-10-16T06:06:12;99032.47;;;17.57;49.75
32456;BME280;18912;43.270;27.942;2022-10-16T06:08:40;99037.47;;;17.90;49.24
32456;BME280;18912;43.270;27.942;2022-10-16T06:11:11;99038.53;;;18.30;48.29
32456;BME280;18912;43.270;27.942;2022-10-16T06:13:37;99043.66;;;18.79;46.70
32456;BME280;18912;43.270;27.942;2022-10-16T06:16:03;99049.38;;;19.01;46.01
32456;BME280;18912;43.270;27.942;2022-10-16T06:18:29;99052.31;;;19.57;45.31
32456;BME280;18912;43.270;27.942;2022-10-16T06:20:55;99038.25;;;20.21;43.93
32456;BME280;18912;43.270;27.942;2022-10-16T06:23:21;99039.88;;;20.51;43.04
32456;BME280;18912;43.270;27.942;2022-10-16T06:25:47;99041.63;;;20.57;43.35
32456;BME280;18912;43.270;27.942;2022-10-16T06:28:16;99037.03;;;20.79;42.50
32456;BME280;18912;43.270;27.942;2022-10-16T06:30:42;99035.09;;;21.12;42.31
32456;BME280;18912;43.270;27.942;2022-10-16T06:33:11;99042.97;;;21.64;40.76
32456;BME280;18912;43.270;27.942;2022-10-16T06:35:36;99043.84;;;21.86;40.52
32456;BME280;18912;43.270;27.942;2022-10-16T06:38:02;99047.19;;;22.14;40.02
32456;BME280;18912;43.270;27.942;2022-10-16T06:40:27;99059.13;;;22.78;39.07
32456;BME280;18912;43.270;27.942;2022-10-16T06:42:56;99054.81;;;23.81;37.28
32456;BME280;18912;43.270;27.942;2022-10-16T06:45:22;99062.28;;;24.72;35.96
32456;BME280;18912;43.270;27.942;2022-10-16T06:47:48;99066.25;;;25.85;34.06
32456;BME280;18912;43.270;27.942;2022-10-16T06:50:13;99070.34;;;26.52;32.48
32456;BME280;18912;43.270;27.942;2022-10-16T06:52:39;99074.22;;;27.33;31.53
32456;BME280;18912;43.270;27.942;2022-10-16T06:55:04;99080.50;;;28.57;29.85
32456;BME280;18912;43.270;27.942;2022-10-16T06:57:30;99078.72;;;30.44;28.01
32456;BME280;18912;43.270;27.942;2022-10-16T06:59:56;99074.72;;;32.00;25.46
32456;BME280;18912;43.270;27.942;2022-10-16T07:02:22;99077.72;;;33.83;23.87
32456;BME280;18912;43.270;27.942;2022-10-16T07:04:47;99083.28;;;34.58;22.76
32456;BME280;18912;43.270;27.942;2022-10-16T07:07:13;99077.53;;;35.49;21.93
32456;BME280;18912;43.270;27.942;2022-10-16T07:09:38;99080.81;;;34.77;22.17
32456;BME280;18912;43.270;27.942;2022-10-16T07:12:05;99076.03;;;34.28;22.33
32456;BME280;18912;43.270;27.942;2022-10-16T07:14:30;99086.00;;;34.67;22.25
32456;BME280;18912;43.270;27.942;2022-10-16T07:16:56;99080.97;;;34.60;22.14
32456;BME280;18912;43.270;27.942;2022-10-16T07:19:21;99080.09;;;33.64;22.60
32456;BME280;18912;43.270;27.942;2022-10-16T07:21:47;99093.69;;;32.20;24.26
32456;BME280;18912;43.270;27.942;2022-10-16T07:24:16;99087.25;;;31.72;24.46
32456;BME280;18912;43.270;27.942;2022-10-16T07:26:43;99086.50;;;31.49;25.33
32456;BME280;18912;43.270;27.942;2022-10-16T07:29:19;99088.09;;;30.48;26.28
32456;BME280;18912;43.270;27.942;2022-10-16T07:31:45;99089.59;;;29.45;27.54
32456;BME280;18912;43.270;27.942;2022-10-16T07:34:13;99079.56;;;27.77;29.18
32456;BME280;18912;43.270;27.942;2022-10-16T07:36:39;99084.59;;;26.84;30.49
32456;BME280;18912;43.270;27.942;2022-10-16T07:39:05;99087.19;;;26.65;30.84
32456;BME280;18912;43.270;27.942;2022-10-16T07:41:30;99081.00;;;26.35;31.67
32456;BME280;18912;43.270;27.942;2022-10-16T07:43:58;99092.06;;;25.81;31.83
32456;BME280;18912;43.270;27.942;2022-10-16T07:46:26;99087.78;;;26.09;32.32
32456;BME280;18912;43.270;27.942;2022-10-16T07:48:52;99099.34;;;26.26;32.05
32456;BME280;18912;43.270;27.942;2022-10-16T07:51:19;99109.03;;;26.82;31.17
32456;BME280;18912;43.270;27.942;2022-10-16T07:53:45;99101.66;;;27.01;31.00
32456;BME280;18912;43.270;27.942;2022-10-16T07:56:11;99105.06;;;26.88;31.10
32456;BME280;18912;43.270;27.942;2022-10-16T07:58:37;99102.72;;;26.71;30.93
32456;BME280;18912;43.270;27.942;2022-10-16T08:01:04;99108.31;;;26.56;31.25
32456;BME280;18912;43.270;27.942;2022-10-16T08:03:30;99102.16;;;26.74;30.61
32456;BME280;18912;43.270;27.942;2022-10-16T08:05:59;99100.84;;;26.96;30.74
32456;BME280;18912;43.270;27.942;2022-10-16T08:08:26;99106.56;;;27.14;30.42
32456;BME280;18912;43.270;27.942;2022-10-16T08:10:52;99098.34;;;27.33;30.20
32456;BME280;18912;43.270;27.942;2022-10-16T08:13:17;99108.91;;;26.97;30.42
32456;BME280;18912;43.270;27.942;2022-10-16T08:15:43;99110.75;;;26.68;30.64
32456;BME280;18912;43.270;27.942;2022-10-16T08:18:11;99112.28;;;27.23;29.74
32456;BME280;18912;43.270;27.942;2022-10-16T08:20:36;99113.59;;;27.30;29.94
32456;BME280;18912;43.270;27.942;2022-10-16T08:23:03;99110.00;;;27.63;29.28
32456;BME280;18912;43.270;27.942;2022-10-16T08:25:29;99111.59;;;27.07;29.62
32456;BME280;18912;43.270;27.942;2022-10-16T08:27:55;99115.78;;;27.38;29.47
32456;BME280;18912;43.270;27.942;2022-10-16T08:30:22;99111.41;;;27.32;28.92
32456;BME280;18912;43.270;27.942;2022-10-16T08:32:48;99111.66;;;27.31;29.41
32456;BME280;18912;43.270;27.942;2022-10-16T08:35:14;99107.63;;;27.18;29.33
32456;BME280;18912;43.270;27.942;2022-10-16T08:37:40;99107.78;;;26.98;29.50
32456;BME280;18912;43.270;27.942;2022-10-16T08:40:12;99112.09;;;27.14;29.37
32456;BME280;18912;43.270;27.942;2022-10-16T08:42:47;99112.69;;;27.45;29.43
32456;BME280;18912;43.270;27.942;2022-10-16T08:48:14;99121.34;;;27.38;29.08
32456;BME280;18912;43.270;27.942;2022-10-16T08:50:42;99122.50;;;27.61;28.93
32456;BME280;18912;43.270;27.942;2022-10-16T08:53:15;99123.22;;;27.71;28.76
32456;BME280;18912;43.270;27.942;2022-10-16T08:55:52;99124.41;;;27.89;28.06
32456;BME280;18912;43.270;27.942;2022-10-16T08:58:23;99130.72;;;28.00;28.18
32456;BME280;18912;43.270;27.942;2022-10-16T09:00:56;99124.50;;;28.08;27.78
32456;BME280;18912;43.270;27.942;2022-10-16T09:03:32;99137.50;;;28.36;27.96
32456;BME280;18912;43.270;27.942;2022-10-16T09:06:17;99130.66;;;28.28;27.68
32456;BME280;18912;43.270;27.942;2022-10-16T09:14:20;99136.97;;;27.87;27.92
32456;BME280;18912;43.270;27.942;2022-10-16T09:17:03;99126.06;;;27.66;28.32
32456;BME280;18912;43.270;27.942;2022-10-16T09:19:39;99130.91;;;27.80;28.33
32456;BME280;18912;43.270;27.942;2022-10-16T09:22:14;99120.72;;;27.46;28.35
32456;BME280;18912;43.270;27.942;2022-10-16T09:24:41;99114.59;;;27.73;28.44
32456;BME280;18912;43.270;27.942;2022-10-16T09:27:14;99119.50;;;27.81;28.19
32456;BME280;18912;43.270;27.942;2022-10-16T09:29:40;99114.13;;;27.37;28.54
32456;BME280;18912;43.270;27.942;2022-10-16T09:32:12;99120.91;;;26.39;29.84
32456;BME280;18912;43.270;27.942;2022-10-16T09:34:43;99119.22;;;26.48;29.71
32456;BME280;18912;43.270;27.942;2022-10-16T09:37:14;99119.59;;;26.75;29.87
32456;BME280;18912;43.270;27.942;2022-10-16T09:39:52;99112.94;;;26.76;29.30
32456;BME280;18912;43.270;27.942;2022-10-16T09:42:20;99114.78;;;26.91;29.33
32456;BME280;18912;43.270;27.942;2022-10-16T09:44:51;99103.78;;;26.75;29.34
32456;BME280;18912;43.270;27.942;2022-10-16T09:47:21;99107.22;;;27.01;28.89
32456;BME280;18912;43.270;27.942;2022-10-16T09:49:57;99102.28;;;26.93;29.91
32456;BME280;18912;43.270;27.942;2022-10-16T09:52:25;99112.13;;;27.09;29.37
32456;BME280;18912;43.270;27.942;2022-10-16T09:57:16;99104.50;;;27.25;28.85
32456;BME280;18912;43.270;27.942;2022-10-16T09:59:54;99098.91;;;27.01;29.17
32456;BME280;18912;43.270;27.942;2022-10-16T10:02:40;99102.41;;;26.73;29.64
32456;BME280;18912;43.270;27.942;2022-10-16T10:05:18;99101.94;;;26.61;29.75
32456;BME280;18912;43.270;27.942;2022-10-16T10:07:44;99101.66;;;27.01;29.36
32456;BME280;18912;43.270;27.942;2022-10-16T10:10:26;99100.72;;;26.77;29.36
32456;BME280;18912;43.270;27.942;2022-10-16T10:12:54;99109.25;;;26.42;30.11
32456;BME280;18912;43.270;27.942;2022-10-16T10:15:20;99099.59;;;26.29;30.38
32456;BME280;18912;43.270;27.942;2022-10-16T10:17:55;99097.34;;;26.41;30.00
32456;BME280;18912;43.270;27.942;2022-10-16T10:20:28;99106.34;;;26.67;29.57
32456;BME280;18912;43.270;27.942;2022-10-16T10:22:55;99104.88;;;26.79;29.51
32456;BME280;18912;43.270;27.942;2022-10-16T10:33:43;99095.59;;;25.97;29.94
32456;BME280;18912;43.270;27.942;2022-10-16T10:41:27;99099.22;;;26.51;29.64
32456;BME280;18912;43.270;27.942;2022-10-16T10:46:54;99101.72;;;25.83;29.70
32456;BME280;18912;43.270;27.942;2022-10-16T10:55:08;99091.19;;;25.90;30.40
32456;BME280;18912;43.270;27.942;2022-10-16T11:03:27;99072.50;;;25.42;29.85
32456;BME280;18912;43.270;27.942;2022-10-16T11:08:59;99066.94;;;25.37;30.52
32456;BME280;18912;43.270;27.942;2022-10-16T11:11:41;99072.78;;;24.75;30.94
32456;BME280;18912;43.270;27.942;2022-10-16T11:14:14;99076.28;;;24.36;31.73
32456;BME280;18912;43.270;27.942;2022-10-16T11:19:36;99081.91;;;23.89;31.46
32456;BME280;18912;43.270;27.942;2022-10-16T11:22:26;99085.06;;;24.07;31.75
32456;BME280;18912;43.270;27.942;2022-10-16T11:30:22;99092.53;;;23.55;33.01
32456;BME280;18912;43.270;27.942;2022-10-16T11:36:03;99090.66;;;23.29;33.56
32456;BME280;18912;43.270;27.942;2022-10-16T11:38:36;99099.19;;;23.28;33.81
32456;BME280;18912;43.270;27.942;2022-10-16T11:44:15;99093.53;;;22.76;34.22
32456;BME280;18912;43.270;27.942;2022-10-16T11:49:34;99087.13;;;22.44;33.60
32456;BME280;18912;43.270;27.942;2022-10-16T11:52:22;99094.78;;;22.37;33.75
32456;BME280;18912;43.270;27.942;2022-10-16T11:57:27;99086.53;;;22.37;34.89
32456;BME280;18912;43.270;27.942;2022-10-16T12:00:28;99086.34;;;21.95;35.89
32456;BME280;18912;43.270;27.942;2022-10-16T12:03:17;99096.00;;;21.97;36.11
32456;BME280;18912;43.270;27.942;2022-10-16T12:09:00;99081.25;;;21.65;35.70
32456;BME280;18912;43.270;27.942;2022-10-16T12:14:04;99089.31;;;21.72;36.49
32456;BME280;18912;43.270;27.942;2022-10-16T12:16:30;99086.66;;;21.60;36.37
32456;BME280;18912;43.270;27.942;2022-10-16T12:21:36;99095.97;;;21.37;36.20
32456;BME280;18912;43.270;27.942;2022-10-16T12:24:03;99099.13;;;21.08;36.87
32456;BME280;18912;43.270;27.942;2022-10-16T12:26:36;99099.25;;;21.34;36.36
32456;BME280;18912;43.270;27.942;2022-10-16T12:29:31;99098.59;;;21.27;36.30
32456;BME280;18912;43.270;27.942;2022-10-16T12:31:58;99095.44;;;21.19;36.71
32456;BME280;18912;43.270;27.942;2022-10-16T12:34:38;99094.34;;;21.03;36.86
32456;BME280;18912;43.270;27.942;2022-10-16T12:37:25;99105.41;;;20.92;37.08
32456;BME280;18912;43.270;27.942;2022-10-16T12:39:53;99103.34;;;21.15;37.17
32456;BME280;18912;43.270;27.942;2022-10-16T12:44:54;99119.94;;;21.04;36.78
32456;BME280;18912;43.270;27.942;2022-10-16T12:49:58;99125.53;;;21.25;36.71
32456;BME280;18912;43.270;27.942;2022-10-16T12:54:50;99122.88;;;21.14;36.38
32456;BME280;18912;43.270;27.942;2022-10-16T12:59:59;99126.97;;;20.67;36.92
32456;BME280;18912;43.270;27.942;2022-10-16T13:05:34;99118.81;;;20.88;37.08
32456;BME280;18912;43.270;27.942;2022-10-16T13:18:52;99122.78;;;20.48;37.99
32456;BME280;18912;43.270;27.942;2022-10-16T13:26:49;99133.28;;;20.22;38.08
32456;BME280;18912;43.270;27.942;2022-10-16T13:29:18;99132.78;;;20.25;38.04
32456;BME280;18912;43.270;27.942;2022-10-16T13:31:45;99120.03;;;20.08;38.16
32456;BME280;18912;43.270;27.942;2022-10-16T13:34:19;99123.84;;;20.18;38.11
32456;BME280;18912;43.270;27.942;2022-10-16T13:36:48;99127.53;;;20.12;37.94
32456;BME280;18912;43.270;27.942;2022-10-16T13:39:35;99127.84;;;19.88;38.36
32456;BME280;18912;43.270;27.942;2022-10-16T13:42:10;99131.13;;;19.73;38.62
32456;BME280;18912;43.270;27.942;2022-10-16T13:44:43;99132.94;;;19.56;38.88
32456;BME280;18912;43.270;27.942;2022-10-16T13:47:32;99128.03;;;19.70;38.94
32456;BME280;18912;43.270;27.942;2022-10-16T13:50:19;99134.13;;;19.60;39.16
32456;BME280;18912;43.270;27.942;2022-10-16T13:52:44;99139.97;;;19.64;38.92
32456;BME280;18912;43.270;27.942;2022-10-16T13:57:37;99155.06;;;19.20;39.17
32456;BME280;18912;43.270;27.942;2022-10-16T14:00:03;99147.69;;;19.32;39.14
32456;BME280;18912;43.270;27.942;2022-10-16T14:02:34;99143.41;;;19.36;39.37
32456;BME280;18912;43.270;27.942;2022-10-16T14:05:03;99148.16;;;19.29;39.20
32456;BME280;18912;43.270;27.942;2022-10-16T14:07:31;99144.94;;;19.09;39.29
32456;BME280;18912;43.270;27.942;2022-10-16T14:10:05;99138.25;;;19.05;39.50
32456;BME280;18912;43.270;27.942;2022-10-16T14:12:32;99135.75;;;18.92;39.52
32456;BME280;18912;43.270;27.942;2022-10-16T14:14:58;99144.34;;;18.95;39.66
32456;BME280;18912;43.270;27.942;2022-10-16T14:17:32;99148.84;;;18.90;39.61
32456;BME280;18912;43.270;27.942;2022-10-16T14:20:01;99146.94;;;18.79;39.29
32456;BME280;18912;43.270;27.942;2022-10-16T14:22:34;99148.91;;;18.72;39.52
32456;BME280;18912;43.270;27.942;2022-10-16T14:25:00;99150.44;;;18.67;39.62
32456;BME280;18912;43.270;27.942;2022-10-16T14:27:33;99150.59;;;18.73;39.67
32456;BME280;18912;43.270;27.942;2022-10-16T14:30:12;99152.91;;;18.46;40.24
32456;BME280;18912;43.270;27.942;2022-10-16T14:32:41;99161.16;;;18.39;40.32
32456;BME280;18912;43.270;27.942;2022-10-16T14:35:22;99166.03;;;18.37;40.39
32456;BME280;18912;43.270;27.942;2022-10-16T14:37:51;99158.31;;;18.16;40.41
32456;BME280;18912;43.270;27.942;2022-10-16T14:40:18;99160.44;;;18.14;40.67
32456;BME280;18912;43.270;27.942;2022-10-16T14:42:44;99163.75;;;17.87;41.18
32456;BME280;18912;43.270;27.942;2022-10-16T14:45:10;99166.19;;;17.95;41.10
32456;BME280;18912;43.270;27.942;2022-10-16T14:47:44;99164.25;;;17.95;41.13
32456;BME280;18912;43.270;27.942;2022-10-16T14:50:13;99160.09;;;17.74;41.59
32456;BME280;18912;43.270;27.942;2022-10-16T14:52:38;99161.63;;;17.70;41.38
32456;BME280;18912;43.270;27.942;2022-10-16T14:55:04;99157.13;;;17.58;41.54
32456;BME280;18912;43.270;27.942;2022-10-16T14:57:31;99156.16;;;17.46;41.68
32456;BME280;18912;43.270;27.942;2022-10-16T14:59:58;99152.66;;;17.21;41.91
32456;BME280;18912;43.270;27.942;2022-10-16T15:02:30;99155.41;;;17.21;41.86
32456;BME280;18912;43.270;27.942;2022-10-16T15:04:56;99162.84;;;17.32;41.58
32456;BME280;18912;43.270;27.942;2022-10-16T15:07:22;99163.28;;;17.29;41.44